createdAt,value
2022-09-10T00:00:59.238Z,100215.63
2022-09-10T00:04:08.071Z,100217.83
2022-09-10T00:07:11.601Z,100212.86
2022-09-10T00:10:14.770Z,100205.41
2022-09-10T00:13:20.918Z,100208.98
2022-09-10T00:16:23.976Z,100209.50
2022-09-10T00:19:27.877Z,100216.63
2022-09-10T00:22:30.390Z,100218.27
2022-09-10T00:25:33.081Z,100220.46
2022-09-10T00:28:35.788Z,100226.25
2022-09-10T00:31:39.522Z,100222.95
2022-09-10T00:34:42.322Z,100216.89
2022-09-10T00:37:46.109Z,100227.59
2022-09-10T00:40:48.999Z,100230.59
2022-09-10T00:43:53.365Z,100229.22
2022-09-10T00:46:56.016Z,100219.61
2022-09-10T00:50:02.662Z,100213.56
2022-09-10T00:53:07.762Z,100219.05
2022-09-10T00:56:10.432Z,100218.23
2022-09-10T00:59:14.090Z,100222.61
2022-09-10T01:02:16.987Z,100226.17
2022-09-10T01:05:19.825Z,100223.17
2022-09-10T01:08:22.845Z,100231.41
2022-09-10T01:11:39.050Z,100224.28
2022-09-10T01:14:52.458Z,100220.42
2022-09-10T01:18:02.946Z,100214.11
2022-09-10T01:21:10.446Z,100213.00
2022-09-10T01:24:32.466Z,100213.85
2022-09-10T01:27:39.387Z,100224.84
2022-09-10T01:30:43.991Z,100227.29
2022-09-10T01:33:49.513Z,100227.58
2022-09-10T01:36:54.366Z,100220.42
2022-09-10T01:39:59.390Z,100219.87
2022-09-10T01:43:05.711Z,100230.84
2022-09-10T01:46:17.963Z,100240.16
2022-09-10T01:49:27.843Z,100235.17
2022-09-10T01:52:36.512Z,100235.94
2022-09-10T01:55:46.223Z,100237.26
2022-09-10T01:58:49.134Z,100239.43
2022-09-10T02:02:03.354Z,100237.19
2022-09-10T02:05:07.866Z,100236.31
2022-09-10T02:08:14.589Z,100237.37
2022-09-10T02:11:18.169Z,100235.42
2022-09-10T02:14:24.826Z,100237.61
2022-09-10T02:17:58.334Z,100229.11
2022-09-10T02:21:03.987Z,100232.92
2022-09-10T02:24:09.550Z,100233.17
2022-09-10T02:27:12.742Z,100232.36
2022-09-10T02:30:16.355Z,100237.84
2022-09-10T02:33:19.126Z,100234.28
2022-09-10T02:36:25.483Z,100229.88
2022-09-10T02:39:28.445Z,100227.13
2022-09-10T02:42:31.244Z,100229.02
2022-09-10T02:45:33.917Z,100219.16
2022-09-10T02:48:36.768Z,100218.30
2022-09-10T02:51:41.259Z,100221.90
2022-09-10T02:54:44.296Z,100219.41
2022-09-10T02:57:47.214Z,100217.74
2022-09-10T03:00:50.230Z,100214.74
2022-09-10T03:03:54.486Z,100212.56
2022-09-10T03:06:59.508Z,100210.42
2022-09-10T03:10:02.481Z,100209.05
2022-09-10T03:13:05.740Z,100214.03
2022-09-10T03:16:09.755Z,100212.67
2022-09-10T03:19:13.557Z,100219.53
2022-09-10T03:22:16.242Z,100222.84
2022-09-10T03:25:19.459Z,100224.77
2022-09-10T03:28:23.935Z,100227.50
2022-09-10T03:31:26.889Z,100245.89
2022-09-10T03:34:29.775Z,100252.45
2022-09-10T03:37:32.394Z,100243.95
2022-09-10T03:40:35.164Z,100255.73
2022-09-10T03:43:37.779Z,100243.38
2022-09-10T03:46:44.984Z,100240.08
2022-09-10T03:49:50.367Z,100232.10
2022-09-10T03:52:52.953Z,100228.80
2022-09-10T03:55:55.753Z,100227.13
2022-09-10T03:58:58.454Z,100236.69
2022-09-10T04:02:02.857Z,100227.89
2022-09-10T04:05:09.134Z,100230.89
2022-09-10T04:08:14.189Z,100233.63
2022-09-10T04:11:17.086Z,100235.81
2022-09-10T04:14:19.859Z,100233.61
2022-09-10T04:17:24.844Z,100233.86
2022-09-10T04:20:31.410Z,100233.86
2022-09-10T04:23:42.798Z,100239.63
2022-09-10T04:26:46.177Z,100237.14
2022-09-10T04:29:51.608Z,100234.41
2022-09-10T04:32:54.261Z,100242.88
2022-09-10T04:35:59.986Z,100238.50
2022-09-10T04:39:02.961Z,100231.34
2022-09-10T04:42:07.863Z,100224.23
2022-09-10T04:45:13.052Z,100221.74
2022-09-10T04:48:17.678Z,100218.19
2022-09-10T04:51:20.324Z,100220.08
2022-09-10T04:54:25.351Z,100214.88
2022-09-10T04:57:28.353Z,100219.51
2022-09-10T05:00:30.870Z,100212.14
2022-09-10T05:03:33.953Z,100224.17
2022-09-10T05:06:36.886Z,100217.88
2022-09-10T05:09:41.009Z,100218.12
2022-09-10T05:12:43.648Z,100212.64
2022-09-10T05:15:47.453Z,100215.38
2022-09-10T05:18:52.520Z,100218.12
2022-09-10T05:21:55.255Z,100225.27
2022-09-10T05:24:58.164Z,100222.25
2022-09-10T05:28:01.036Z,100210.21
2022-09-10T05:31:03.686Z,100210.21
2022-09-10T05:34:07.801Z,100210.52
2022-09-10T05:37:11.458Z,100215.47
2022-09-10T05:40:15.446Z,100200.40
2022-09-10T05:43:18.534Z,100193.84
2022-09-10T05:46:21.702Z,100188.63
2022-09-10T05:49:27.539Z,100192.24
2022-09-10T05:52:32.268Z,100192.33
2022-09-10T05:55:38.329Z,100196.47
2022-09-10T05:58:44.741Z,100197.33
2022-09-10T06:01:50.962Z,100198.76
2022-09-10T06:04:54.750Z,100199.89
2022-09-10T06:07:58.384Z,100195.01
2022-09-10T06:11:04.526Z,100204.33
2022-09-10T06:14:14.401Z,100199.70
2022-09-10T06:17:17.519Z,100198.62
2022-09-10T06:20:20.401Z,100203.31
2022-09-10T06:23:26.044Z,100205.27
2022-09-10T06:26:28.608Z,100198.97
2022-09-10T06:29:36.060Z,100210.52
2022-09-10T06:32:39.383Z,100212.19
2022-09-10T06:35:44.115Z,100213.33
2022-09-10T06:38:49.038Z,100210.88
2022-09-10T06:41:53.161Z,100210.06
2022-09-10T06:45:17.685Z,100206.52
2022-09-10T06:48:47.630Z,100210.96
2022-09-10T06:51:51.622Z,100216.45
2022-09-10T06:54:54.452Z,100208.20
2022-09-10T06:58:09.088Z,100217.53
2022-09-10T07:01:15.413Z,100218.64
2022-09-10T07:04:21.492Z,100216.76
2022-09-10T07:07:24.536Z,100227.47
2022-09-10T07:10:27.795Z,100231.05
2022-09-10T07:13:31.271Z,100230.78
2022-09-10T07:16:35.057Z,100219.22
2022-09-10T07:19:37.847Z,100226.08
2022-09-10T07:22:48.580Z,100215.91
2022-09-10T07:25:55.659Z,100221.09
2022-09-10T07:29:12.354Z,100212.58
2022-09-10T07:32:15.249Z,100216.69
2022-09-10T07:35:18.038Z,100205.41
2022-09-10T07:38:22.203Z,100214.75
2022-09-10T07:41:27.611Z,100216.39
2022-09-10T07:44:30.430Z,100218.84
2022-09-10T07:47:36.780Z,100224.03
2022-09-10T07:50:40.608Z,100218.52
2022-09-10T07:53:50.341Z,100220.43
2022-09-10T07:56:55.710Z,100217.41
2022-09-10T08:00:00.132Z,100209.64
2022-09-10T08:03:05.706Z,100212.63
2022-09-10T08:06:09.611Z,100213.70
2022-09-10T08:09:17.201Z,100214.23
2022-09-10T08:12:25.145Z,100215.05
2022-09-10T08:15:35.552Z,100212.25
2022-09-10T08:18:38.540Z,100208.08
2022-09-10T08:21:41.609Z,100210.19
2022-09-10T08:24:47.310Z,100207.94
2022-09-10T08:27:50.243Z,100222.78
2022-09-10T08:30:58.642Z,100222.11
2022-09-10T08:34:01.739Z,100218.99
2022-09-10T08:37:04.754Z,100222.23
2022-09-10T08:40:11.390Z,100223.55
2022-09-10T08:43:15.205Z,100232.30
2022-09-10T08:46:21.742Z,100230.86
2022-09-10T08:49:29.974Z,100235.50
2022-09-10T08:52:37.768Z,100242.09
2022-09-10T08:55:45.994Z,100240.64
2022-09-10T08:58:54.244Z,100235.58
2022-09-10T09:01:59.898Z,100232.04
2022-09-10T09:05:05.867Z,100236.03
2022-09-10T09:08:11.758Z,100246.96
2022-09-10T09:11:16.976Z,100245.20
2022-09-10T09:14:25.662Z,100235.94
2022-09-10T09:17:38.003Z,100241.66
2022-09-10T09:20:45.739Z,100238.75
2022-09-10T09:24:12.119Z,100231.17
2022-09-10T09:27:19.583Z,100226.83
2022-09-10T09:30:24.280Z,100237.22
2022-09-10T09:33:29.552Z,100235.49
2022-09-10T09:36:37.143Z,100235.69
2022-09-10T09:39:42.862Z,100236.31
2022-09-10T09:42:48.417Z,100235.55
2022-09-10T09:45:53.552Z,100232.36
2022-09-10T09:48:57.942Z,100239.31
2022-09-10T09:52:02.989Z,100240.42
2022-09-10T09:55:15.247Z,100234.08
2022-09-10T09:58:29.229Z,100232.06
2022-09-10T10:01:32.783Z,100231.06
2022-09-10T10:04:40.167Z,100229.28
2022-09-10T10:07:47.920Z,100226.84
2022-09-10T10:10:52.044Z,100229.45
2022-09-10T10:14:11.466Z,100232.78
2022-09-10T10:17:32.421Z,100229.25
2022-09-10T10:20:36.261Z,100238.30
2022-09-10T10:23:39.072Z,100223.34
2022-09-10T10:26:43.550Z,100223.23
2022-09-10T10:30:01.688Z,100231.13
2022-09-10T10:33:04.418Z,100232.08
2022-09-10T10:36:14.684Z,100228.61
2022-09-10T10:39:23.801Z,100238.34
2022-09-10T10:42:29.820Z,100229.02
2022-09-10T10:45:42.040Z,100226.34
2022-09-10T10:49:03.587Z,100242.12
2022-09-10T10:52:18.720Z,100246.55
2022-09-10T10:55:23.812Z,100241.22
2022-09-10T10:58:39.133Z,100238.55
2022-09-10T11:01:45.424Z,100238.87
2022-09-10T11:04:59.331Z,100238.83
2022-09-10T11:08:22.916Z,100240.56
2022-09-10T11:11:37.983Z,100244.86
2022-09-10T11:14:45.284Z,100246.11
2022-09-10T11:17:51.041Z,100242.03
2022-09-10T11:20:58.456Z,100236.61
2022-09-10T11:24:03.982Z,100235.77
2022-09-10T11:27:09.343Z,100235.67
2022-09-10T11:37:15.052Z,100221.28
2022-09-10T11:40:26.628Z,100216.09
2022-09-10T11:43:41.867Z,100211.23
2022-09-10T11:46:55.870Z,100206.69
2022-09-10T11:50:01.733Z,100191.84
2022-09-10T11:53:06.827Z,100196.34
2022-09-10T11:56:27.489Z,100207.02
2022-09-10T11:59:53.761Z,100201.52
2022-09-10T12:03:12.932Z,100189.41
2022-09-10T12:06:22.097Z,100194.81
2022-09-10T12:09:32.231Z,100185.03
2022-09-10T12:16:19.534Z,100182.08
2022-09-10T12:19:26.481Z,100177.77
2022-09-10T12:22:41.209Z,100173.22
2022-09-10T12:25:46.469Z,100175.19
2022-09-10T12:28:57.904Z,100180.55
2022-09-10T12:32:27.965Z,100169.59
2022-09-10T12:35:41.270Z,100173.28
2022-09-10T12:38:50.767Z,100166.22
2022-09-10T12:42:16.095Z,100165.44
2022-09-10T12:45:36.249Z,100166.80
2022-09-10T12:48:42.983Z,100160.58
2022-09-10T12:51:56.564Z,100160.33
2022-09-10T12:55:04.133Z,100158.87
2022-09-10T12:58:11.944Z,100153.32
2022-09-10T13:01:18.216Z,100161.50
2022-09-10T13:04:24.188Z,100161.40
2022-09-10T13:07:32.838Z,100168.91
2022-09-10T13:10:36.369Z,100153.32
2022-09-10T13:13:40.538Z,100150.08
2022-09-10T13:16:43.370Z,100155.61
2022-09-10T13:19:50.729Z,100154.45
2022-09-10T13:22:58.164Z,100150.27
2022-09-10T13:26:30.485Z,100152.11
2022-09-10T13:29:34.939Z,100151.56
2022-09-10T13:32:40.626Z,100141.74
2022-09-10T13:35:55.537Z,100143.14
2022-09-10T13:39:17.025Z,100147.72
2022-09-10T13:42:31.279Z,100141.05
2022-09-10T13:45:39.276Z,100137.50
2022-09-10T13:48:45.566Z,100133.65
2022-09-10T13:51:51.150Z,100134.67
2022-09-10T13:54:55.967Z,100136.31
2022-09-10T13:58:01.360Z,100137.20
2022-09-10T14:01:04.916Z,100144.57
2022-09-10T14:04:21.330Z,100141.16
2022-09-10T14:07:26.160Z,100146.05
2022-09-10T14:10:28.945Z,100143.77
2022-09-10T14:13:34.823Z,100137.20
2022-09-10T14:16:40.360Z,100137.77
2022-09-10T14:19:48.598Z,100132.59
2022-09-10T14:22:53.062Z,100130.25
2022-09-10T14:26:09.416Z,100133.03
2022-09-10T14:29:24.108Z,100117.87
2022-09-10T14:32:28.331Z,100116.61
2022-09-10T14:35:38.599Z,100104.75
2022-09-10T14:38:42.111Z,100110.54
2022-09-10T14:41:44.751Z,100113.36
2022-09-10T14:44:49.981Z,100100.94
2022-09-10T14:47:53.808Z,100109.94
2022-09-10T14:51:17.337Z,100113.85
2022-09-10T14:54:20.208Z,100111.08
2022-09-10T14:57:22.813Z,100101.66
2022-09-10T15:00:25.906Z,100108.56
2022-09-10T15:03:28.720Z,100107.00
2022-09-10T15:06:31.414Z,100113.38
2022-09-10T15:09:34.090Z,100105.31
2022-09-10T15:12:39.228Z,100104.50
2022-09-10T15:15:41.843Z,100103.35
2022-09-10T15:18:44.597Z,100115.96
2022-09-10T15:21:47.206Z,100106.98
2022-09-10T15:25:08.654Z,100110.91
2022-09-10T15:28:12.366Z,100107.64
2022-09-10T15:31:16.754Z,100112.72
2022-09-10T15:34:19.563Z,100099.95
2022-09-10T15:37:22.495Z,100095.00
2022-09-10T15:40:25.017Z,100096.32
2022-09-10T15:43:27.605Z,100092.73
2022-09-10T15:46:30.369Z,100098.16
2022-09-10T15:49:34.675Z,100098.83
2022-09-10T15:52:37.483Z,100096.44
2022-09-10T15:55:40.191Z,100102.47
2022-09-10T15:58:47.192Z,100101.44
2022-09-10T16:01:49.941Z,100106.46
2022-09-10T16:04:53.283Z,100113.40
2022-09-10T16:07:56.050Z,100111.84
2022-09-10T16:10:59.351Z,100115.45
2022-09-10T16:14:04.762Z,100122.13
2022-09-10T16:17:09.974Z,100121.09
2022-09-10T16:20:12.507Z,100123.38
2022-09-10T16:23:16.527Z,100125.14
2022-09-10T16:26:20.421Z,100129.56
2022-09-10T16:29:23.055Z,100122.09
2022-09-10T16:32:25.732Z,100119.53
2022-09-10T16:35:28.405Z,100121.38
2022-09-10T16:38:31.938Z,100116.81
2022-09-10T16:41:34.739Z,100117.75
2022-09-10T16:44:38.117Z,100128.63
2022-09-10T16:47:40.936Z,100127.88
2022-09-10T16:50:43.597Z,100125.77
2022-09-10T16:53:48.113Z,100122.52
2022-09-10T16:56:50.818Z,100125.04
2022-09-10T16:59:53.597Z,100123.69
2022-09-10T17:02:58.552Z,100114.07
2022-09-10T17:06:01.375Z,100116.28
2022-09-10T17:09:04.284Z,100113.29
2022-09-10T17:12:09.856Z,100118.27
2022-09-10T17:15:12.484Z,100125.73
2022-09-10T17:18:16.022Z,100132.91
2022-09-10T17:21:21.017Z,100127.42
2022-09-10T17:24:26.854Z,100132.08
2022-09-10T17:27:30.320Z,100129.36
2022-09-10T17:30:32.990Z,100132.11
2022-09-10T17:33:35.846Z,100122.73
2022-09-10T17:36:39.394Z,100133.15
2022-09-10T17:39:42.081Z,100129.02
2022-09-10T17:42:45.061Z,100133.67
2022-09-10T17:45:47.675Z,100135.53
2022-09-10T17:48:50.821Z,100133.61
2022-09-10T17:51:53.559Z,100142.10
2022-09-10T17:54:57.158Z,100145.92
2022-09-10T17:58:00.084Z,100150.55
2022-09-10T18:01:05.394Z,100153.84
2022-09-10T18:04:12.076Z,100152.44
2022-09-10T18:07:14.748Z,100155.73
2022-09-10T18:10:17.687Z,100156.00
2022-09-10T18:13:20.426Z,100162.59
2022-09-10T18:16:24.164Z,100158.44
2022-09-10T18:19:27.463Z,100152.13
2022-09-10T18:22:30.072Z,100154.88
2022-09-10T18:25:32.947Z,100147.75
2022-09-10T18:28:35.652Z,100157.62
2022-09-10T18:31:39.114Z,100154.06
2022-09-10T18:34:42.763Z,100151.58
2022-09-10T18:37:49.447Z,100150.50
2022-09-10T18:40:52.123Z,100149.65
2022-09-10T18:43:58.900Z,100149.65
2022-09-10T18:47:01.853Z,100151.58
2022-09-10T18:50:06.149Z,100154.58
2022-09-10T18:53:09.240Z,100149.37
2022-09-10T18:56:13.080Z,100150.20
2022-09-10T18:59:19.466Z,100157.61
2022-09-10T19:02:22.481Z,100151.27
2022-09-10T19:05:25.201Z,100163.91
2022-09-10T19:08:27.967Z,100162.80
2022-09-10T19:11:32.750Z,100164.22
2022-09-10T19:14:35.590Z,100161.48
2022-09-10T19:17:38.334Z,100159.04
2022-09-10T19:20:40.981Z,100164.27
2022-09-10T19:23:44.492Z,100156.55
2022-09-10T19:26:47.243Z,100147.24
2022-09-10T19:29:50.389Z,100146.14
2022-09-10T19:32:53.762Z,100146.40
2022-09-10T19:35:56.770Z,100144.77
2022-09-10T19:39:01.274Z,100148.87
2022-09-10T19:42:06.720Z,100147.20
2022-09-10T19:45:10.775Z,100144.72
2022-09-10T19:48:13.726Z,100152.39
2022-09-10T19:51:18.500Z,100147.72
2022-09-10T19:54:22.069Z,100151.52
2022-09-10T19:57:24.848Z,100152.07
2022-09-10T20:00:45.930Z,100156.17
2022-09-10T20:03:50.180Z,100144.91
2022-09-10T20:06:53.226Z,100148.72
2022-09-10T20:09:55.992Z,100158.31
2022-09-10T20:12:58.575Z,100152.01
2022-09-10T20:16:02.080Z,100154.75
2022-09-10T20:19:05.296Z,100161.05
2022-09-10T20:22:07.987Z,100157.50
2022-09-10T20:25:10.850Z,100159.69
2022-09-10T20:28:13.821Z,100155.05
2022-09-10T20:31:16.860Z,100162.17
2022-09-10T20:34:20.794Z,100156.17
2022-09-10T20:37:24.282Z,100159.19
2022-09-10T20:40:27.111Z,100160.31
2022-09-10T20:43:29.834Z,100153.75
2022-09-10T20:46:33.792Z,100156.75
2022-09-10T20:49:36.486Z,100154.55
2022-09-10T20:52:39.421Z,100155.07
2022-09-10T20:55:42.465Z,100148.77
2022-09-10T20:58:48.596Z,100155.37
2022-09-10T21:01:51.907Z,100156.75
2022-09-10T21:04:54.979Z,100159.23
2022-09-10T21:07:58.636Z,100163.31
2022-09-10T21:11:02.455Z,100152.08
2022-09-10T21:14:06.453Z,100151.27
2022-09-10T21:17:09.522Z,100153.20
2022-09-10T21:20:12.951Z,100154.02
2022-09-10T21:23:16.309Z,100143.60
2022-09-10T21:26:20.134Z,100143.91
2022-09-10T21:29:23.858Z,100149.65
2022-09-10T21:32:26.787Z,100137.30
2022-09-10T21:35:30.522Z,100144.97
2022-09-10T21:38:34.974Z,100136.18
2022-09-10T21:41:39.455Z,100144.66
2022-09-10T21:44:42.102Z,100144.91
2022-09-10T21:47:44.991Z,100143.19
2022-09-10T21:50:47.865Z,100138.51
2022-09-10T21:53:52.506Z,100138.46
2022-09-10T21:56:55.417Z,100137.08
2022-09-10T21:59:58.232Z,100131.30
2022-09-10T22:03:01.021Z,100128.28
2022-09-10T22:06:04.663Z,100131.02
2022-09-10T22:09:09.301Z,100127.17
2022-09-10T22:12:12.089Z,100141.44
2022-09-10T22:15:15.422Z,100131.58
2022-09-10T22:18:19.875Z,100134.33
2022-09-10T22:21:22.908Z,100131.58
2022-09-10T22:24:25.838Z,100139.80
2022-09-10T22:27:28.552Z,100136.78
2022-09-10T22:30:31.383Z,100136.27
2022-09-10T22:33:34.533Z,100135.45
2022-09-10T22:36:37.975Z,100135.96
2022-09-10T22:39:40.902Z,100136.22
2022-09-10T22:42:43.832Z,100137.88
2022-09-10T22:45:46.591Z,100142.80
2022-09-10T22:48:49.250Z,100138.95
2022-09-10T22:51:52.288Z,100135.96
2022-09-10T22:54:56.943Z,100129.97
2022-09-10T22:57:59.751Z,100136.54
2022-09-10T23:01:07.437Z,100128.31
2022-09-10T23:04:11.237Z,100125.30
2022-09-10T23:07:14.244Z,100129.66
2022-09-10T23:10:17.563Z,100137.32
2022-09-10T23:13:20.459Z,100123.88
2022-09-10T23:16:24.135Z,100129.89
2022-09-10T23:19:28.800Z,100133.72
2022-09-10T23:22:32.073Z,100131.77
2022-09-10T23:25:35.647Z,100135.87
2022-09-10T23:28:38.536Z,100136.69
2022-09-10T23:31:41.202Z,100137.00
2022-09-10T23:34:44.569Z,100133.70
2022-09-10T23:37:51.553Z,100130.10
2022-09-10T23:40:55.472Z,100125.73
2022-09-10T23:43:58.264Z,100127.11
2022-09-10T23:47:00.878Z,100126.55
2022-09-10T23:50:05.492Z,100129.83
2022-09-10T23:53:08.630Z,100132.28
2022-09-10T23:56:11.301Z,100136.94
2022-09-10T23:59:14.727Z,100138.87
